createdAt,value
2022-09-18T00:01:10.897Z,99502.72
2022-09-18T00:04:01.281Z,99504.34
2022-09-18T00:06:48.737Z,99508.53
2022-09-18T00:09:36.028Z,99507.47
2022-09-18T00:12:23.604Z,99514.28
2022-09-18T00:15:11.740Z,99509.84
2022-09-18T00:18:00.738Z,99510.34
2022-09-18T00:20:48.329Z,99508.75
2022-09-18T00:23:36.447Z,99503.22
2022-09-18T00:26:25.836Z,99492.25
2022-09-18T00:29:14.830Z,99501.38
2022-09-18T00:32:02.769Z,99505.47
2022-09-18T00:34:51.676Z,99505.47
2022-09-18T00:37:39.249Z,99506.28
2022-09-18T00:40:26.675Z,99501.06
2022-09-18T00:43:20.225Z,99500.25
2022-09-18T00:46:10.970Z,99502.63
2022-09-18T00:49:06.248Z,99506.84
2022-09-18T00:51:58.616Z,99503.44
2022-09-18T00:54:49.620Z,99500.56
2022-09-18T00:57:43.123Z,99502.16
2022-09-18T01:00:32.116Z,99509.97
2022-09-18T01:03:19.494Z,99507.38
2022-09-18T01:06:15.430Z,99501.13
2022-09-18T01:09:27.729Z,99502.69
2022-09-18T01:12:28.872Z,99503.75
2022-09-18T01:15:27.245Z,99505.81
2022-09-18T01:18:25.649Z,99502.63
2022-09-18T01:21:14.707Z,99495.81
2022-09-18T01:24:46.243Z,99502.03
2022-09-18T01:27:47.992Z,99499.97
2022-09-18T01:30:40.901Z,99491.81
2022-09-18T01:33:39.444Z,99491.03
2022-09-18T01:36:31.517Z,99506.72
2022-09-18T01:39:28.988Z,99515.34
2022-09-18T01:42:19.536Z,99522.41
2022-09-18T01:45:14.108Z,99516.13
2022-09-18T01:48:05.345Z,99521.94
2022-09-18T01:51:01.140Z,99523.25
2022-09-18T01:53:53.326Z,99511.22
2022-09-18T01:56:47.913Z,99506.84
2022-09-18T01:59:41.153Z,99507.38
2022-09-18T02:02:43.132Z,99501.38
2022-09-18T02:05:37.244Z,99493.78
2022-09-18T02:08:28.772Z,99496.63
2022-09-18T02:11:20.772Z,99503.66
2022-09-18T02:14:13.405Z,99497.88
2022-09-18T02:17:37.231Z,99486.91
2022-09-18T02:20:31.046Z,99493.94
2022-09-18T02:23:19.289Z,99495.22
2022-09-18T02:26:07.736Z,99483.44
2022-09-18T02:28:57.170Z,99491.53
2022-09-18T02:31:45.263Z,99499.63
2022-09-18T02:34:34.577Z,99503.50
2022-09-18T02:37:35.310Z,99501.91
2022-09-18T02:40:34.716Z,99486.72
2022-09-18T02:43:38.418Z,99485.47
2022-09-18T02:46:37.917Z,99491.47
2022-09-18T02:49:40.568Z,99483.63
2022-09-18T02:52:35.040Z,99487.28
2022-09-18T02:55:28.553Z,99494.50
2022-09-18T02:58:22.677Z,99483.81
2022-09-18T03:01:15.146Z,99482.00
2022-09-18T03:04:05.917Z,99488.56
2022-09-18T03:07:27.351Z,99479.91
2022-09-18T03:10:16.765Z,99470.50
2022-09-18T03:13:04.525Z,99470.50
2022-09-18T03:15:52.100Z,99478.34
2022-09-18T03:18:39.542Z,99471.03
2022-09-18T03:21:27.250Z,99485.47
2022-09-18T03:24:15.897Z,99480.25
2022-09-18T03:27:06.980Z,99476.59
2022-09-18T03:29:54.821Z,99486.22
2022-09-18T03:32:44.965Z,99475.50
2022-09-18T03:35:32.850Z,99475.19
2022-09-18T03:38:20.636Z,99471.00
2022-09-18T03:41:11.344Z,99472.31
2022-09-18T03:44:01.053Z,99468.38
2022-09-18T03:46:49.191Z,99459.50
2022-09-18T03:49:36.805Z,99462.13
2022-09-18T03:52:24.181Z,99468.38
2022-09-18T03:55:17.097Z,99465.22
2022-09-18T03:58:41.481Z,99468.88
2022-09-18T04:01:54.552Z,99468.88
2022-09-18T04:04:48.069Z,99475.66
2022-09-18T04:07:38.814Z,99468.88
2022-09-18T04:10:44.912Z,99470.97
2022-09-18T04:13:32.521Z,99488.44
2022-09-18T04:16:26.233Z,99469.34
2022-09-18T04:19:14.181Z,99481.91
2022-09-18T04:22:01.465Z,99477.19
2022-09-18T04:24:50.488Z,99481.41
2022-09-18T04:27:38.140Z,99485.59
2022-09-18T04:30:25.815Z,99484.56
2022-09-18T04:33:16.082Z,99488.72
2022-09-18T04:36:04.234Z,99477.28
2022-09-18T04:38:51.821Z,99479.63
2022-09-18T04:41:40.669Z,99483.56
2022-09-18T04:44:28.581Z,99488.31
2022-09-18T04:47:16.410Z,99483.63
2022-09-18T04:50:08.825Z,99478.63
2022-09-18T04:52:56.466Z,99472.09
2022-09-18T04:55:45.675Z,99483.03
2022-09-18T04:58:33.922Z,99494.50
2022-09-18T05:01:22.146Z,99490.09
2022-09-18T05:04:09.638Z,99494.28
2022-09-18T05:07:21.524Z,99496.66
2022-09-18T05:10:11.465Z,99505.56
2022-09-18T05:13:00.098Z,99495.44
2022-09-18T05:15:49.510Z,99492.31
2022-09-18T05:18:37.453Z,99494.44
2022-09-18T05:21:25.177Z,99493.19
2022-09-18T05:24:14.217Z,99491.09
2022-09-18T05:27:03.934Z,99499.72
2022-09-18T05:29:51.469Z,99506.78
2022-09-18T05:32:43.548Z,99499.97
2022-09-18T05:35:33.880Z,99499.97
2022-09-18T05:38:21.403Z,99500.22
2022-09-18T05:41:13.912Z,99507.25
2022-09-18T05:44:01.465Z,99503.06
2022-09-18T05:46:49.434Z,99496.53
2022-09-18T05:49:37.798Z,99500.41
2022-09-18T05:52:27.224Z,99491.78
2022-09-18T05:55:14.928Z,99496.19
2022-09-18T05:58:06.100Z,99506.66
2022-09-18T06:00:53.482Z,99498.81
2022-09-18T06:03:51.042Z,99506.66
2022-09-18T06:06:39.835Z,99506.66
2022-09-18T06:09:27.721Z,99517.09
2022-09-18T06:12:15.087Z,99511.88
2022-09-18T06:15:03.661Z,99509.84
2022-09-18T06:17:52.984Z,99512.44
2022-09-18T06:20:40.738Z,99512.97
2022-09-18T06:23:29.693Z,99501.75
2022-09-18T06:26:22.717Z,99502.50
2022-09-18T06:29:11.196Z,99491.53
2022-09-18T06:32:10.306Z,99500.41
2022-09-18T06:34:59.623Z,99506.66
2022-09-18T06:37:47.349Z,99499.38
2022-09-18T06:40:50.789Z,99502.00
2022-09-18T06:43:58.237Z,99503.56
2022-09-18T06:47:13.398Z,99509.03
2022-09-18T06:50:05.638Z,99514.00
2022-09-18T06:52:53.005Z,99515.34
2022-09-18T06:55:41.315Z,99510.66
2022-09-18T06:58:29.151Z,99512.00
2022-09-18T07:01:18.026Z,99511.28
2022-09-18T07:04:10.058Z,99522.81
2022-09-18T07:07:05.597Z,99517.59
2022-09-18T07:09:53.721Z,99515.78
2022-09-18T07:12:48.499Z,99515.53
2022-09-18T07:15:37.983Z,99520.50
2022-09-18T07:18:27.760Z,99518.44
2022-09-18T07:21:16.353Z,99522.41
2022-09-18T07:24:05.515Z,99521.88
2022-09-18T07:26:53.612Z,99529.47
2022-09-18T07:29:41.257Z,99531.06
2022-09-18T07:32:30.007Z,99532.91
2022-09-18T07:35:18.872Z,99536.78
2022-09-18T07:38:09.137Z,99537.28
2022-09-18T07:41:14.819Z,99544.56
2022-09-18T07:44:04.545Z,99535.72
2022-09-18T07:46:55.377Z,99538.09
2022-09-18T07:49:44.356Z,99534.94
2022-09-18T07:52:32.087Z,99533.13
2022-09-18T07:55:21.258Z,99530.28
2022-09-18T07:58:08.778Z,99539.44
2022-09-18T08:01:15.249Z,99538.97
2022-09-18T08:04:10.560Z,99537.41
2022-09-18T08:07:27.092Z,99537.41
2022-09-18T08:10:28.202Z,99529.09
2022-09-18T08:13:34.141Z,99535.91
2022-09-18T08:16:40.530Z,99527.31
2022-09-18T08:19:27.908Z,99539.41
2022-09-18T08:22:45.021Z,99541.78
2022-09-18T08:25:34.999Z,99541.81
2022-09-18T08:28:22.897Z,99540.78
2022-09-18T08:31:16.329Z,99540.28
2022-09-18T08:34:04.722Z,99536.38
2022-09-18T08:36:52.579Z,99533.00
2022-09-18T08:40:00.667Z,99528.53
2022-09-18T08:43:16.732Z,99524.09
2022-09-18T08:46:14.433Z,99529.09
2022-09-18T08:49:20.193Z,99530.91
2022-09-18T08:52:15.952Z,99536.94
2022-09-18T08:55:08.338Z,99534.06
2022-09-18T08:58:31.857Z,99528.84
2022-09-18T09:01:21.181Z,99535.16
2022-09-18T09:04:24.011Z,99537.75
2022-09-18T09:07:31.830Z,99533.56
2022-09-18T09:10:39.013Z,99537.53
2022-09-18T09:14:01.138Z,99536.44
2022-09-18T09:16:54.188Z,99538.56
2022-09-18T09:19:50.350Z,99537.28
2022-09-18T09:22:49.908Z,99536.22
2022-09-18T09:25:47.034Z,99529.19
2022-09-18T09:29:02.821Z,99528.13
2022-09-18T09:32:22.314Z,99521.63
2022-09-18T09:35:27.801Z,99524.53
2022-09-18T09:38:42.460Z,99533.19
2022-09-18T09:41:36.128Z,99530.84
2022-09-18T09:44:37.219Z,99527.97
2022-09-18T09:47:35.811Z,99530.66
2022-09-18T09:50:48.018Z,99520.19
2022-09-18T09:53:37.754Z,99523.56
2022-09-18T09:56:33.063Z,99518.63
2022-09-18T09:59:31.123Z,99515.28
2022-09-18T10:03:15.444Z,99512.91
2022-09-18T10:06:20.489Z,99505.56
2022-09-18T10:09:16.811Z,99494.09
2022-09-18T10:12:19.854Z,99499.09
2022-09-18T10:15:21.590Z,99503.03
2022-09-18T10:18:16.615Z,99505.66
2022-09-18T10:21:10.735Z,99504.88
2022-09-18T10:24:10.115Z,99497.03
2022-09-18T10:27:03.720Z,99511.38
2022-09-18T10:29:54.860Z,99492.81
2022-09-18T10:32:59.820Z,99496.78
2022-09-18T10:36:02.548Z,99500.47
2022-09-18T10:38:50.481Z,99513.56
2022-09-18T10:41:46.051Z,99500.22
2022-09-18T10:44:37.043Z,99502.69
2022-09-18T10:47:34.466Z,99500.09
2022-09-18T10:50:24.148Z,99499.03
2022-09-18T10:53:30.666Z,99488.06
2022-09-18T10:56:25.926Z,99494.38
2022-09-18T10:59:35.769Z,99489.16
2022-09-18T11:02:27.037Z,99498.91
2022-09-18T11:05:19.397Z,99494.72
2022-09-18T11:08:19.365Z,99491.59
2022-09-18T11:11:12.240Z,99496.03
2022-09-18T11:14:01.565Z,99499.44
2022-09-18T11:17:00.326Z,99491.84
2022-09-18T11:19:57.080Z,99498.41
2022-09-18T11:23:17.042Z,99493.41
2022-09-18T11:26:19.323Z,99488.19
2022-09-18T11:29:25.704Z,99486.06
2022-09-18T11:32:21.048Z,99483.19
2022-09-18T11:35:17.872Z,99481.88
2022-09-18T11:38:08.261Z,99477.19
2022-09-18T11:41:02.972Z,99463.06
2022-09-18T11:44:03.171Z,99471.44
2022-09-18T11:47:18.267Z,99462.28
2022-09-18T11:50:15.101Z,99468.31
2022-09-18T11:53:11.453Z,99467.00
2022-09-18T11:56:08.002Z,99468.88
2022-09-18T11:59:03.242Z,99466.75
2022-09-18T12:01:56.285Z,99466.00
2022-09-18T12:04:49.485Z,99446.91
2022-09-18T12:07:48.396Z,99451.38
2022-09-18T12:10:52.852Z,99443.25
2022-09-18T12:13:50.365Z,99439.06
2022-09-18T12:16:52.454Z,99442.22
2022-09-18T12:19:51.263Z,99433.03
2022-09-18T12:22:48.809Z,99434.06
2022-09-18T12:25:46.369Z,99444.06
2022-09-18T12:29:09.568Z,99441.97
2022-09-18T12:32:07.073Z,99430.19
2022-09-18T12:35:03.504Z,99416.31
2022-09-18T12:38:05.153Z,99416.56
2022-09-18T12:41:13.880Z,99422.31
2022-09-18T12:44:57.332Z,99419.19
2022-09-18T12:48:03.691Z,99417.06
2022-09-18T12:51:12.329Z,99426.25
2022-09-18T12:54:17.999Z,99417.06
2022-09-18T12:57:31.163Z,99419.41
2022-09-18T13:00:22.199Z,99416.78
2022-09-18T13:03:18.341Z,99409.19
2022-09-18T13:06:14.087Z,99409.72
2022-09-18T13:09:12.953Z,99408.94
2022-09-18T13:12:05.162Z,99411.31
2022-09-18T13:14:57.310Z,99400.53
2022-09-18T13:17:51.995Z,99399.75
2022-09-18T13:20:44.255Z,99388.47
2022-09-18T13:23:35.149Z,99399.22
2022-09-18T13:26:26.380Z,99390.81
2022-09-18T13:29:59.190Z,99389.25
2022-09-18T13:32:48.165Z,99385.81
2022-09-18T13:35:39.556Z,99385.00
2022-09-18T13:38:29.117Z,99381.34
2022-09-18T13:41:16.715Z,99383.16
2022-09-18T13:44:04.103Z,99376.88
2022-09-18T13:46:53.545Z,99375.00
2022-09-18T13:49:50.560Z,99391.53
2022-09-18T13:52:55.545Z,99383.13
2022-09-18T13:55:51.320Z,99379.16
2022-09-18T13:58:52.294Z,99378.38
2022-09-18T14:02:02.505Z,99376.53
2022-09-18T14:05:26.977Z,99380.75
2022-09-18T14:08:38.467Z,99375.78
2022-09-18T14:11:26.169Z,99380.22
2022-09-18T14:14:14.737Z,99377.06
2022-09-18T14:17:13.812Z,99378.34
2022-09-18T14:20:08.315Z,99373.91
2022-09-18T14:22:55.767Z,99373.91
2022-09-18T14:25:49.712Z,99374.16
2022-09-18T14:28:38.009Z,99374.72
2022-09-18T14:31:29.664Z,99370.53
2022-09-18T14:34:23.619Z,99370.28
2022-09-18T14:37:31.018Z,99362.94
2022-09-18T14:40:24.875Z,99366.56
2022-09-18T14:43:16.848Z,99366.88
2022-09-18T14:46:05.032Z,99356.69
2022-09-18T14:48:52.899Z,99366.59
2022-09-18T14:52:03.048Z,99351.97
2022-09-18T14:54:55.117Z,99355.66
2022-09-18T14:57:47.125Z,99352.53
2022-09-18T15:00:37.497Z,99342.81
2022-09-18T15:03:29.872Z,99343.34
2022-09-18T15:06:22.274Z,99343.59
2022-09-18T15:09:14.274Z,99342.56
2022-09-18T15:12:03.658Z,99347.31
2022-09-18T15:14:52.033Z,99348.34
2022-09-18T15:17:39.352Z,99334.44
2022-09-18T15:20:29.580Z,99332.09
2022-09-18T15:23:27.169Z,99322.88
2022-09-18T15:26:17.363Z,99326.31
2022-09-18T15:29:15.177Z,99327.38
2022-09-18T15:32:05.634Z,99319.75
2022-09-18T15:34:54.800Z,99323.69
2022-09-18T15:37:51.019Z,99314.78
2022-09-18T15:40:40.046Z,99311.88
2022-09-18T15:43:43.465Z,99307.44
2022-09-18T15:46:34.605Z,99306.38
2022-09-18T15:49:29.822Z,99311.88
2022-09-18T15:52:38.671Z,99303.50
2022-09-18T15:55:28.904Z,99300.09
2022-09-18T15:58:29.591Z,99307.41
2022-09-18T16:01:35.420Z,99316.03
2022-09-18T16:04:27.052Z,99308.94
2022-09-18T16:07:22.770Z,99311.06
2022-09-18T16:10:51.379Z,99310.78
2022-09-18T16:13:39.986Z,99311.56
2022-09-18T16:16:27.425Z,99311.56
2022-09-18T16:19:17.336Z,99314.72
2022-09-18T16:22:11.086Z,99316.28
2022-09-18T16:24:59.835Z,99316.28
2022-09-18T16:27:50.707Z,99314.19
2022-09-18T16:30:38.288Z,99309.75
2022-09-18T16:33:28.468Z,99318.16
2022-09-18T16:36:27.554Z,99311.59
2022-09-18T16:39:17.872Z,99305.06
2022-09-18T16:42:17.850Z,99306.63
2022-09-18T16:45:08.395Z,99308.22
2022-09-18T16:48:00.584Z,99307.41
2022-09-18T16:50:48.631Z,99308.22
2022-09-18T16:53:38.278Z,99310.03
2022-09-18T16:56:33.146Z,99315.00
2022-09-18T16:59:22.824Z,99309.50
2022-09-18T17:02:14.644Z,99305.59
2022-09-18T17:05:02.269Z,99307.94
2022-09-18T17:07:49.962Z,99307.69
2022-09-18T17:10:37.816Z,99310.84
2022-09-18T17:13:25.964Z,99310.59
2022-09-18T17:16:26.095Z,99313.22
2022-09-18T17:19:20.020Z,99305.34
2022-09-18T17:22:07.802Z,99311.63
2022-09-18T17:24:55.357Z,99309.53
2022-09-18T17:27:44.006Z,99314.78
2022-09-18T17:30:31.401Z,99309.00
2022-09-18T17:33:20.538Z,99319.47
2022-09-18T17:36:12.138Z,99324.72
2022-09-18T17:39:02.304Z,99316.34
2022-09-18T17:41:50.217Z,99311.88
2022-09-18T17:44:42.856Z,99302.72
2022-09-18T17:47:30.479Z,99297.47
2022-09-18T17:50:19.879Z,99297.47
2022-09-18T17:53:09.542Z,99295.09
2022-09-18T17:55:59.532Z,99295.63
2022-09-18T17:58:48.192Z,99295.38
2022-09-18T18:01:38.811Z,99302.69
2022-09-18T18:04:26.104Z,99294.56
2022-09-18T18:07:13.631Z,99302.69
2022-09-18T18:10:02.519Z,99300.06
2022-09-18T18:12:50.993Z,99301.63
2022-09-18T18:15:38.413Z,99300.56
2022-09-18T18:18:25.700Z,99289.84
2022-09-18T18:21:13.150Z,99287.47
2022-09-18T18:24:03.830Z,99296.13
2022-09-18T18:26:55.623Z,99293.78
2022-09-18T18:29:42.881Z,99289.84
2022-09-18T18:32:30.052Z,99305.81
2022-09-18T18:35:17.500Z,99305.28
2022-09-18T18:38:05.223Z,99302.66
2022-09-18T18:40:52.855Z,99304.25
2022-09-18T18:43:42.308Z,99299.28
2022-09-18T18:46:35.894Z,99301.88
2022-09-18T18:49:24.201Z,99302.91
2022-09-18T18:52:11.651Z,99303.16
2022-09-18T18:54:59.621Z,99301.59
2022-09-18T18:57:46.952Z,99300.81
2022-09-18T19:00:36.545Z,99299.25
2022-09-18T19:03:24.056Z,99304.22
2022-09-18T19:06:11.656Z,99302.63
2022-09-18T19:09:01.281Z,99302.88
2022-09-18T19:11:50.388Z,99298.69
2022-09-18T19:14:38.118Z,99301.56
2022-09-18T19:17:29.260Z,99297.38
2022-09-18T19:20:17.485Z,99295.81
2022-09-18T19:23:06.878Z,99292.88
2022-09-18T19:25:58.439Z,99299.44
2022-09-18T19:28:50.605Z,99300.19
2022-09-18T19:31:40.074Z,99304.13
2022-09-18T19:34:29.001Z,99307.78
2022-09-18T19:37:18.317Z,99310.91
2022-09-18T19:40:06.365Z,99318.22
2022-09-18T19:42:58.573Z,99315.59
2022-09-18T19:45:48.583Z,99301.19
2022-09-18T19:48:36.387Z,99299.34
2022-09-18T19:51:25.528Z,99297.53
2022-09-18T19:54:12.899Z,99305.13
2022-09-18T19:57:00.230Z,99308.53
2022-09-18T19:59:47.848Z,99324.00
2022-09-18T20:02:35.022Z,99339.72
2022-09-18T20:05:22.347Z,99336.03
2022-09-18T20:08:11.637Z,99337.59
2022-09-18T20:10:59.369Z,99334.97
2022-09-18T20:13:51.549Z,99330.81
2022-09-18T20:16:39.108Z,99323.44
2022-09-18T20:19:27.193Z,99344.34
2022-09-18T20:22:14.850Z,99338.06
2022-09-18T20:25:06.620Z,99332.25
2022-09-18T20:27:54.737Z,99328.03
2022-09-18T20:30:42.795Z,99334.81
2022-09-18T20:33:30.555Z,99356.78
2022-09-18T20:36:18.284Z,99364.13
2022-09-18T20:39:06.874Z,99360.97
2022-09-18T20:41:57.353Z,99373.50
2022-09-18T20:44:44.985Z,99393.69
2022-09-18T20:47:35.063Z,99397.03
2022-09-18T20:50:25.715Z,99410.56
2022-09-18T20:53:14.096Z,99408.41
2022-09-18T20:56:04.510Z,99424.03
2022-09-18T20:58:54.721Z,99423.13
2022-09-18T21:01:42.643Z,99425.09
2022-09-18T21:04:30.950Z,99426.16
2022-09-18T21:07:20.207Z,99429.78
2022-09-18T21:10:10.052Z,99436.06
2022-09-18T21:12:58.883Z,99429.00
2022-09-18T21:15:48.862Z,99436.31
2022-09-18T21:18:39.765Z,99441.00
2022-09-18T21:21:30.614Z,99451.97
2022-09-18T21:24:18.577Z,99440.19
2022-09-18T21:27:06.823Z,99438.44
2022-09-18T21:29:56.638Z,99433.16
2022-09-18T21:32:45.736Z,99436.31
2022-09-18T21:35:34.778Z,99435.25
2022-09-18T21:38:22.690Z,99416.47
2022-09-18T21:41:11.488Z,99406.75
2022-09-18T21:44:00.211Z,99422.19
2022-09-18T21:46:48.833Z,99418.22
2022-09-18T21:49:38.184Z,99443.78
2022-09-18T21:52:25.881Z,99436.19
2022-09-18T21:55:13.617Z,99437.72
2022-09-18T21:58:01.388Z,99432.50
2022-09-18T22:00:49.423Z,99435.38
2022-09-18T22:03:37.462Z,99417.56
2022-09-18T22:06:29.542Z,99444.97
2022-09-18T22:09:20.926Z,99452.22
2022-09-18T22:12:09.322Z,99436.53
2022-09-18T22:14:57.275Z,99442.81
2022-09-18T22:17:44.649Z,99438.34
2022-09-18T22:20:32.561Z,99451.44
2022-09-18T22:23:21.630Z,99452.75
2022-09-18T22:26:09.742Z,99445.44
2022-09-18T22:28:58.244Z,99449.06
2022-09-18T22:31:47.595Z,99451.13
2022-09-18T22:34:36.028Z,99447.38
2022-09-18T22:37:24.872Z,99454.47
2022-09-18T22:40:14.303Z,99456.72
2022-09-18T22:43:02.430Z,99465.06
2022-09-18T22:45:50.306Z,99479.94
2022-09-18T22:48:39.080Z,99481.69
2022-09-18T22:51:28.938Z,99471.00
2022-09-18T22:54:18.338Z,99473.84
2022-09-18T22:57:07.473Z,99470.41
2022-09-18T22:59:55.276Z,99478.47
2022-09-18T23:02:43.259Z,99473.44
2022-09-18T23:05:31.249Z,99479.91
2022-09-18T23:08:19.439Z,99490.34
2022-09-18T23:11:10.927Z,99476.44
2022-09-18T23:14:04.693Z,99485.09
2022-09-18T23:16:53.383Z,99487.91
2022-09-18T23:19:41.376Z,99500.09
2022-09-18T23:22:29.239Z,99483.16
2022-09-18T23:25:17.398Z,99476.53
2022-09-18T23:28:05.362Z,99491.94
2022-09-18T23:30:54.937Z,99487.53
2022-09-18T23:33:44.688Z,99486.91
2022-09-18T23:36:35.134Z,99496.88
2022-09-18T23:39:28.109Z,99509.38
2022-09-18T23:42:16.099Z,99498.88
2022-09-18T23:45:04.534Z,99504.63
2022-09-18T23:47:54.088Z,99509.78
2022-09-18T23:50:43.337Z,99514.75
2022-09-18T23:53:38.114Z,99510.25
2022-09-18T23:56:26.182Z,99524.97
2022-09-18T23:59:15.006Z,99518.88
